createdAt,value
2023-05-01T00:01:57.520Z,46.25
2023-05-01T00:04:25.213Z,44.00
2023-05-01T00:06:52.591Z,44.25
2023-05-01T00:09:20.519Z,42.25
2023-05-01T00:11:47.593Z,39.50
2023-05-01T00:14:15.073Z,44.00
2023-05-01T00:16:43.124Z,39.00
2023-05-01T00:19:12.833Z,41.25
2023-05-01T00:21:40.051Z,38.25
2023-05-01T00:24:08.072Z,36.75
2023-05-01T00:26:35.189Z,38.50
2023-05-01T00:29:03.546Z,35.25
2023-05-01T00:31:31.201Z,39.75
2023-05-01T00:33:58.523Z,38.00
2023-05-01T00:36:25.781Z,41.00
2023-05-01T00:38:53.637Z,35.00
2023-05-01T00:41:21.360Z,39.75
2023-05-01T00:43:48.913Z,35.75
2023-05-01T00:46:16.562Z,39.25
2023-05-01T00:48:44.655Z,37.75
2023-05-01T00:51:12.876Z,36.50
2023-05-01T00:53:41.207Z,36.75
2023-05-01T00:56:08.800Z,42.50
2023-05-01T00:58:36.287Z,41.50
2023-05-01T01:01:05.501Z,32.75
2023-05-01T01:03:32.859Z,39.00
2023-05-01T01:06:28.127Z,40.00
2023-05-01T01:09:21.782Z,38.50
2023-05-01T01:11:52.030Z,39.25
2023-05-01T01:14:25.580Z,34.00
2023-05-01T01:17:05.185Z,33.00
2023-05-01T01:20:15.614Z,35.75
2023-05-01T01:22:47.968Z,36.00
2023-05-01T01:25:18.369Z,37.00
2023-05-01T01:28:16.138Z,42.75
2023-05-01T01:31:14.529Z,40.50
2023-05-01T01:33:55.631Z,36.50
2023-05-01T01:36:34.912Z,36.50
2023-05-01T01:39:09.243Z,30.00
2023-05-01T01:41:37.449Z,40.00
2023-05-01T01:44:21.030Z,35.00
2023-05-01T01:46:50.194Z,38.50
2023-05-01T01:49:23.934Z,31.50
2023-05-01T01:51:53.395Z,43.50
2023-05-01T01:54:26.469Z,42.25
2023-05-01T01:56:55.108Z,35.25
2023-05-01T01:59:24.323Z,49.00
2023-05-01T02:01:53.817Z,47.25
2023-05-01T02:04:21.970Z,44.00
2023-05-01T02:06:50.202Z,41.50
2023-05-01T02:09:19.955Z,30.50
2023-05-01T02:11:48.968Z,31.25
2023-05-01T02:14:16.666Z,30.75
2023-05-01T02:16:44.536Z,13.00
2023-05-01T02:19:13.417Z,29.25
2023-05-01T02:21:41.561Z,30.75
2023-05-01T02:24:10.638Z,32.50
2023-05-01T02:26:42.850Z,30.00
2023-05-01T02:29:11.293Z,30.75
2023-05-01T02:31:38.869Z,32.50
2023-05-01T02:34:07.186Z,33.25
2023-05-01T02:36:35.178Z,25.25
2023-05-01T02:39:03.153Z,32.50
2023-05-01T02:41:31.694Z,33.75
2023-05-01T02:44:04.529Z,34.75
2023-05-01T02:46:34.663Z,27.25
2023-05-01T02:49:03.313Z,35.75
2023-05-01T02:51:33.790Z,37.25
2023-05-01T02:54:01.514Z,41.00
2023-05-01T02:56:29.629Z,38.00
2023-05-01T02:58:57.096Z,38.00
2023-05-01T03:01:24.690Z,40.00
2023-05-01T03:03:52.463Z,39.75
2023-05-01T03:06:19.948Z,38.00
2023-05-01T03:08:48.026Z,40.25
2023-05-01T03:11:15.898Z,27.50
2023-05-01T03:13:43.915Z,37.50
2023-05-01T03:16:11.563Z,37.75
2023-05-01T03:18:38.702Z,36.25
2023-05-01T03:21:06.408Z,41.00
2023-05-01T03:23:33.710Z,33.50
2023-05-01T03:26:01.108Z,39.50
2023-05-01T03:28:28.253Z,37.00
2023-05-01T03:30:55.733Z,37.00
2023-05-01T03:33:23.641Z,38.50
2023-05-01T03:36:00.742Z,25.75
2023-05-01T03:38:28.441Z,41.75
2023-05-01T03:40:55.854Z,42.50
2023-05-01T03:43:24.238Z,39.75
2023-05-01T03:45:52.542Z,38.25
2023-05-01T03:48:20.104Z,22.25
2023-05-01T03:50:47.829Z,38.50
2023-05-01T03:53:15.550Z,35.50
2023-05-01T03:55:42.954Z,36.75
2023-05-01T03:58:10.981Z,34.75
2023-05-01T04:00:38.762Z,37.25
2023-05-01T04:03:06.280Z,36.25
2023-05-01T04:05:34.241Z,18.00
2023-05-01T04:08:01.376Z,34.25
2023-05-01T04:10:28.947Z,28.75
2023-05-01T04:12:56.011Z,27.00
2023-05-01T04:15:24.142Z,28.50
2023-05-01T04:17:51.320Z,29.00
2023-05-01T04:20:19.883Z,36.75
2023-05-01T04:22:47.975Z,30.25
2023-05-01T04:25:15.442Z,30.00
2023-05-01T04:27:42.763Z,27.50
2023-05-01T04:30:10.795Z,33.50
2023-05-01T04:32:38.086Z,26.75
2023-05-01T04:35:05.850Z,25.75
2023-05-01T04:37:32.978Z,0.00
2023-05-01T04:40:00.954Z,32.75
2023-05-01T04:42:34.272Z,32.50
2023-05-01T04:45:04.267Z,31.50
2023-05-01T04:47:31.660Z,29.50
2023-05-01T04:49:59.272Z,32.25
2023-05-01T04:52:26.351Z,32.25
2023-05-01T04:54:53.815Z,30.25
2023-05-01T04:57:20.968Z,26.75
2023-05-01T04:59:48.760Z,26.25
2023-05-01T05:02:15.818Z,19.75
2023-05-01T05:04:43.508Z,25.00
2023-05-01T05:07:10.800Z,26.00
2023-05-01T05:09:38.522Z,24.75
2023-05-01T05:12:06.401Z,30.25
2023-05-01T05:14:33.904Z,25.25
2023-05-01T05:17:01.120Z,24.50
2023-05-01T05:19:28.744Z,19.00
2023-05-01T05:21:56.069Z,18.00
2023-05-01T05:24:23.950Z,19.75
2023-05-01T05:26:51.688Z,16.25
2023-05-01T05:29:19.309Z,17.00
2023-05-01T05:31:46.919Z,14.50
2023-05-01T05:34:14.628Z,16.50
2023-05-01T05:36:41.696Z,15.00
2023-05-01T05:39:08.976Z,16.50
2023-05-01T05:41:36.123Z,15.25
2023-05-01T05:44:03.749Z,14.75
2023-05-01T05:46:30.969Z,15.50
2023-05-01T05:48:59.360Z,12.25
2023-05-01T05:51:26.789Z,14.50
2023-05-01T05:53:54.755Z,9.75
2023-05-01T05:56:22.255Z,11.25
2023-05-01T05:58:50.027Z,7.25
2023-05-01T06:01:18.044Z,9.00
2023-05-01T06:03:45.961Z,9.00
2023-05-01T06:06:13.441Z,12.75
2023-05-01T06:08:40.762Z,9.75
2023-05-01T06:11:09.244Z,9.75
2023-05-01T06:13:37.350Z,10.75
2023-05-01T06:16:05.040Z,5.25
2023-05-01T06:18:32.469Z,8.50
2023-05-01T06:21:00.225Z,8.25
2023-05-01T06:23:27.579Z,5.50
2023-05-01T06:25:55.144Z,1.00
2023-05-01T06:28:23.156Z,5.67
2023-05-01T06:30:50.450Z,5.33
2023-05-01T06:33:18.734Z,5.67
2023-05-01T06:35:48.829Z,6.00
2023-05-01T06:38:16.425Z,5.67
2023-05-01T06:40:47.417Z,9.00
2023-05-01T06:43:15.189Z,14.00
2023-05-01T06:45:42.926Z,8.00
2023-05-01T06:48:13.014Z,8.67
2023-05-01T06:50:42.825Z,9.00
2023-05-01T06:53:11.122Z,10.33
2023-05-01T06:55:38.740Z,10.00
2023-05-01T06:58:15.947Z,6.67
2023-05-01T07:00:49.901Z,11.33
2023-05-01T07:03:18.092Z,7.67
2023-05-01T07:05:45.631Z,6.00
2023-05-01T07:08:15.466Z,3.33
2023-05-01T07:10:43.120Z,6.33
2023-05-01T07:13:11.130Z,6.00
2023-05-01T07:15:40.177Z,8.67
2023-05-01T07:18:08.089Z,8.00
2023-05-01T07:20:36.298Z,5.00
2023-05-01T07:23:07.288Z,5.33
2023-05-01T07:25:37.904Z,8.00
2023-05-01T07:28:08.368Z,8.33
2023-05-01T07:30:39.752Z,5.00
2023-05-01T07:33:07.858Z,4.00
2023-05-01T07:35:35.810Z,6.67
2023-05-01T07:38:03.917Z,6.67
2023-05-01T07:40:34.397Z,5.00
2023-05-01T07:43:01.774Z,6.33
2023-05-01T07:45:29.068Z,6.33
2023-05-01T07:47:57.772Z,8.00
2023-05-01T07:50:26.233Z,6.33
2023-05-01T07:52:54.011Z,8.67
2023-05-01T07:55:22.919Z,5.00
2023-05-01T07:57:50.985Z,7.67
2023-05-01T08:00:19.027Z,4.67
2023-05-01T08:05:45.564Z,3.33
2023-05-01T08:08:25.515Z,5.33
2023-05-01T08:11:05.581Z,5.00
2023-05-01T08:13:36.685Z,4.67
2023-05-01T08:16:04.879Z,5.00
2023-05-01T08:18:40.031Z,4.33
2023-05-01T08:21:07.366Z,3.00
2023-05-01T08:23:47.323Z,4.67
2023-05-01T08:26:22.348Z,5.33
2023-05-01T08:28:57.715Z,4.33
2023-05-01T08:31:28.151Z,6.00
2023-05-01T08:34:02.603Z,4.67
2023-05-01T08:36:31.455Z,5.33
2023-05-01T08:39:01.502Z,7.00
2023-05-01T08:41:29.889Z,4.00
2023-05-01T08:44:02.017Z,3.33
2023-05-01T08:46:32.537Z,4.00
2023-05-01T08:49:00.577Z,7.67
2023-05-01T08:51:29.538Z,5.00
2023-05-01T08:53:58.848Z,4.00
2023-05-01T08:56:26.385Z,4.00
2023-05-01T08:58:54.489Z,4.33
2023-05-01T09:01:24.925Z,4.00
2023-05-01T09:03:53.296Z,6.00
2023-05-01T09:06:20.814Z,3.67
2023-05-01T09:08:50.628Z,4.67
2023-05-01T09:11:20.542Z,4.67
2023-05-01T09:13:47.896Z,5.00
2023-05-01T09:16:18.724Z,6.33
2023-05-01T09:18:47.624Z,2.33
2023-05-01T09:21:16.220Z,4.00
2023-05-01T09:23:43.822Z,8.33
2023-05-01T09:26:11.649Z,5.67
2023-05-01T09:28:46.900Z,4.33
2023-05-01T09:31:25.785Z,5.33
2023-05-01T09:33:55.179Z,6.00
2023-05-01T09:36:26.921Z,5.00
2023-05-01T09:38:54.933Z,3.67
2023-05-01T09:41:25.281Z,5.33
2023-05-01T09:43:57.081Z,4.33
2023-05-01T09:46:25.638Z,6.00
2023-05-01T09:49:05.468Z,4.00
2023-05-01T09:51:36.196Z,3.67
2023-05-01T09:54:05.296Z,5.00
2023-05-01T09:56:34.527Z,5.00
2023-05-01T09:59:23.157Z,4.00
2023-05-01T10:01:53.586Z,3.00
2023-05-01T10:04:33.219Z,4.00
2023-05-01T10:07:20.746Z,4.00
2023-05-01T10:09:48.654Z,6.00
2023-05-01T10:12:27.091Z,5.33
2023-05-01T10:14:56.144Z,3.75
2023-05-01T10:17:23.360Z,3.75
2023-05-01T10:19:53.807Z,4.00
2023-05-01T10:22:22.129Z,5.67
2023-05-01T10:24:49.578Z,3.75
2023-05-01T10:27:17.666Z,5.25
2023-05-01T10:29:47.636Z,4.33
2023-05-01T10:32:15.306Z,4.75
2023-05-01T10:34:46.263Z,3.25
2023-05-01T10:37:23.421Z,2.00
2023-05-01T10:39:50.906Z,3.00
2023-05-01T10:42:18.545Z,3.75
2023-05-01T10:44:48.157Z,3.00
2023-05-01T10:47:28.063Z,4.50
2023-05-01T10:50:08.964Z,3.00
2023-05-01T10:53:10.826Z,2.00
2023-05-01T10:55:46.190Z,4.75
2023-05-01T10:58:14.772Z,3.00
2023-05-01T11:00:42.469Z,3.00
2023-05-01T11:03:21.887Z,5.00
2023-05-01T11:06:04.032Z,4.75
2023-05-01T11:08:38.017Z,3.00
2023-05-01T11:11:21.388Z,4.00
2023-05-01T11:14:05.125Z,3.50
2023-05-01T11:16:46.353Z,3.00
2023-05-01T11:19:23.867Z,4.75
2023-05-01T11:21:51.877Z,3.00
2023-05-01T11:24:20.285Z,3.50
2023-05-01T11:26:49.090Z,3.75
2023-05-01T11:29:16.644Z,4.50
2023-05-01T11:31:48.815Z,3.75
2023-05-01T11:34:16.317Z,3.00
2023-05-01T11:36:52.262Z,4.00
2023-05-01T11:39:22.722Z,2.75
2023-05-01T11:41:50.734Z,3.50
2023-05-01T11:44:18.818Z,3.00
2023-05-01T11:46:46.527Z,2.25
2023-05-01T11:49:14.698Z,4.25
2023-05-01T11:51:45.216Z,3.00
2023-05-01T11:54:20.282Z,3.00
2023-05-01T11:57:04.643Z,5.25
2023-05-01T11:59:35.552Z,3.00
2023-05-01T12:02:03.447Z,4.00
2023-05-01T12:04:34.283Z,4.00
2023-05-01T12:07:02.277Z,2.50
2023-05-01T12:09:32.314Z,4.00
2023-05-01T12:12:02.131Z,4.00
2023-05-01T12:14:29.816Z,3.50
2023-05-01T12:16:57.778Z,4.00
2023-05-01T12:19:25.151Z,3.00
2023-05-01T12:22:09.086Z,2.75
2023-05-01T12:24:37.789Z,3.00
2023-05-01T12:27:07.614Z,2.00
2023-05-01T12:29:41.947Z,3.25
2023-05-01T12:32:09.670Z,3.00
2023-05-01T12:34:37.328Z,4.25
2023-05-01T12:37:05.446Z,2.50
2023-05-01T12:39:42.675Z,2.00
2023-05-01T12:42:14.840Z,3.00
2023-05-01T12:44:44.504Z,3.00
2023-05-01T12:47:12.950Z,4.25
2023-05-01T12:49:41.111Z,3.75
2023-05-01T12:52:09.372Z,4.50
2023-05-01T12:54:39.363Z,3.50
2023-05-01T12:57:11.015Z,3.00
2023-05-01T12:59:40.007Z,2.50
2023-05-01T13:02:11.387Z,4.75
2023-05-01T13:04:39.338Z,5.75
2023-05-01T13:07:18.520Z,2.25
2023-05-01T13:09:56.346Z,2.00
2023-05-01T13:12:24.818Z,3.25
2023-05-01T13:14:52.082Z,3.00
2023-05-01T13:17:38.734Z,3.00
2023-05-01T13:20:06.446Z,3.25
2023-05-01T13:22:36.178Z,4.00
2023-05-01T13:25:21.173Z,4.25
2023-05-01T13:27:50.801Z,2.50
2023-05-01T13:30:22.395Z,3.00
2023-05-01T13:32:50.333Z,2.75
2023-05-01T13:35:25.408Z,4.00
2023-05-01T13:37:54.780Z,5.75
2023-05-01T13:40:23.861Z,5.00
2023-05-01T13:42:53.075Z,4.00
2023-05-01T13:45:21.502Z,3.00
2023-05-01T13:47:51.059Z,4.75
2023-05-01T13:50:18.492Z,3.25
2023-05-01T13:52:46.156Z,2.75
2023-05-01T13:55:14.372Z,2.00
2023-05-01T13:57:43.390Z,3.00
2023-05-01T14:00:17.813Z,2.00
2023-05-01T14:02:48.832Z,2.50
2023-05-01T14:05:16.896Z,2.00
2023-05-01T14:07:58.416Z,2.00
2023-05-01T14:10:28.239Z,3.25
2023-05-01T14:12:57.790Z,1.50
2023-05-01T14:15:25.261Z,2.75
2023-05-01T14:17:56.423Z,3.50
2023-05-01T14:20:25.811Z,6.50
2023-05-01T14:22:55.466Z,2.75
2023-05-01T14:25:33.234Z,4.00
2023-05-01T14:28:08.427Z,3.00
2023-05-01T14:30:38.887Z,3.50
2023-05-01T14:33:12.008Z,1.00
2023-05-01T14:35:57.861Z,3.25
2023-05-01T14:38:29.334Z,3.00
2023-05-01T14:40:56.553Z,0.00
2023-05-01T14:43:27.535Z,2.25
2023-05-01T14:45:55.796Z,5.25
2023-05-01T14:48:25.720Z,2.75
2023-05-01T14:50:55.171Z,4.00
2023-05-01T14:53:23.606Z,2.50
2023-05-01T14:55:51.983Z,4.00
2023-05-01T14:58:19.272Z,2.25
2023-05-01T15:00:46.346Z,6.50
2023-05-01T15:03:15.427Z,3.00
2023-05-01T15:05:42.510Z,2.50
2023-05-01T15:08:09.904Z,4.25
2023-05-01T15:10:38.755Z,4.50
2023-05-01T15:13:06.888Z,4.00
2023-05-01T15:15:33.890Z,3.75
2023-05-01T15:18:02.493Z,4.25
2023-05-01T15:20:30.200Z,3.00
2023-05-01T15:22:57.808Z,3.25
2023-05-01T15:25:24.768Z,3.25
2023-05-01T15:27:52.354Z,3.25
2023-05-01T15:30:19.776Z,4.25
2023-05-01T15:32:47.408Z,4.00
2023-05-01T15:35:14.458Z,3.25
2023-05-01T15:37:42.429Z,5.00
2023-05-01T15:40:09.634Z,3.25
2023-05-01T15:42:37.202Z,5.00
2023-05-01T15:45:04.618Z,5.00
2023-05-01T15:47:32.092Z,2.25
2023-05-01T15:49:59.509Z,4.75
2023-05-01T15:52:27.282Z,3.00
2023-05-01T15:54:55.174Z,3.00
2023-05-01T15:57:22.627Z,3.00
2023-05-01T15:59:54.644Z,3.25
2023-05-01T16:02:23.494Z,3.75
2023-05-01T16:04:52.881Z,5.00
2023-05-01T16:07:21.709Z,4.00
2023-05-01T16:09:49.391Z,4.75
2023-05-01T16:12:17.047Z,4.00
2023-05-01T16:14:44.655Z,5.00
2023-05-01T16:17:11.882Z,4.00
2023-05-01T16:19:39.341Z,3.75
2023-05-01T16:22:07.585Z,6.25
2023-05-01T16:24:38.879Z,4.00
2023-05-01T16:27:08.776Z,2.50
2023-05-01T16:29:36.276Z,4.25
2023-05-01T16:32:04.679Z,5.50
2023-05-01T16:34:34.704Z,5.00
2023-05-01T16:37:03.295Z,6.25
2023-05-01T16:39:30.673Z,7.00
2023-05-01T16:42:00.596Z,7.00
2023-05-01T16:44:28.160Z,4.75
2023-05-01T16:46:57.809Z,4.50
2023-05-01T16:49:27.624Z,3.00
2023-05-01T16:51:57.475Z,5.00
2023-05-01T16:54:32.411Z,3.25
2023-05-01T16:57:01.901Z,2.50
2023-05-01T16:59:29.509Z,5.50
2023-05-01T17:01:57.586Z,6.75
2023-05-01T17:04:25.360Z,6.75
2023-05-01T17:06:53.508Z,3.00
2023-05-01T17:09:20.925Z,8.50
2023-05-01T17:11:48.528Z,1.00
2023-05-01T17:14:16.647Z,7.25
2023-05-01T17:16:44.200Z,5.00
2023-05-01T17:19:12.138Z,11.50
2023-05-01T17:21:49.565Z,4.25
2023-05-01T17:24:17.154Z,7.75
2023-05-01T17:26:46.976Z,7.25
2023-05-01T17:29:14.063Z,9.25
2023-05-01T17:31:41.451Z,2.50
2023-05-01T17:34:08.677Z,8.75
2023-05-01T17:36:36.859Z,4.25
2023-05-01T17:39:04.536Z,7.25
2023-05-01T17:41:32.186Z,10.25
2023-05-01T17:43:59.481Z,9.75
2023-05-01T17:46:27.207Z,10.00
2023-05-01T17:48:54.782Z,15.75
2023-05-01T17:51:22.700Z,7.50
2023-05-01T17:53:50.814Z,16.00
2023-05-01T17:56:19.324Z,15.00
2023-05-01T17:58:46.772Z,12.00
2023-05-01T18:01:15.257Z,11.00
2023-05-01T18:03:42.633Z,12.00
2023-05-01T18:06:10.165Z,14.00
2023-05-01T18:08:37.754Z,12.33
2023-05-01T18:11:05.386Z,13.33
2023-05-01T18:13:38.297Z,13.67
2023-05-01T18:16:06.568Z,14.67
2023-05-01T18:18:34.105Z,22.67
2023-05-01T18:21:01.536Z,17.33
2023-05-01T18:23:29.270Z,15.33
2023-05-01T18:25:57.062Z,16.00
2023-05-01T18:28:28.003Z,17.67
2023-05-01T18:30:55.904Z,15.00
2023-05-01T18:33:23.884Z,10.33
2023-05-01T18:35:52.733Z,14.00
2023-05-01T18:38:20.060Z,15.00
2023-05-01T18:40:50.984Z,14.00
2023-05-01T18:43:18.438Z,18.33
2023-05-01T18:45:46.587Z,17.67
2023-05-01T18:48:17.262Z,17.67
2023-05-01T18:51:00.719Z,19.00
2023-05-01T18:53:34.796Z,19.33
2023-05-01T18:56:08.555Z,20.00
2023-05-01T18:58:36.359Z,23.00
2023-05-01T19:01:04.287Z,19.33
2023-05-01T19:03:33.189Z,19.00
2023-05-01T19:06:01.250Z,21.33
2023-05-01T19:08:28.940Z,16.00
2023-05-01T19:11:03.458Z,15.00
2023-05-01T19:13:30.901Z,14.00
2023-05-01T19:15:58.388Z,12.33
2023-05-01T19:18:26.014Z,9.67
2023-05-01T19:20:53.882Z,12.67
2023-05-01T19:23:20.984Z,15.00
2023-05-01T19:25:48.376Z,15.00
2023-05-01T19:28:18.151Z,15.33
2023-05-01T19:30:45.676Z,11.00
2023-05-01T19:33:13.433Z,16.00
2023-05-01T19:35:41.063Z,6.33
2023-05-01T19:38:08.103Z,12.00
2023-05-01T19:40:35.398Z,16.33
2023-05-01T19:43:05.523Z,14.33
2023-05-01T19:45:33.247Z,12.33
2023-05-01T19:48:00.773Z,13.00
2023-05-01T19:50:28.624Z,11.00
2023-05-01T19:52:55.774Z,13.67
2023-05-01T19:55:23.233Z,14.67
2023-05-01T19:57:52.404Z,16.67
2023-05-01T20:00:22.659Z,14.67
2023-05-01T20:02:53.397Z,14.00
2023-05-01T20:05:20.973Z,15.00
2023-05-01T20:07:47.965Z,17.67
2023-05-01T20:10:16.994Z,17.33
2023-05-01T20:12:44.367Z,17.00
2023-05-01T20:15:12.435Z,20.67
2023-05-01T20:17:40.019Z,17.00
2023-05-01T20:20:08.234Z,16.33
2023-05-01T20:22:35.328Z,24.00
2023-05-01T20:25:03.364Z,22.67
2023-05-01T20:27:31.223Z,25.00
2023-05-01T20:29:59.236Z,31.50
2023-05-01T20:32:26.937Z,27.67
2023-05-01T20:34:55.539Z,33.75
2023-05-01T20:37:22.955Z,37.25
2023-05-01T20:39:50.586Z,34.50
2023-05-01T20:42:17.844Z,37.25
2023-05-01T20:44:45.170Z,46.25
2023-05-01T20:47:15.496Z,44.00
2023-05-01T20:49:42.964Z,41.75
2023-05-01T20:52:11.022Z,37.00
2023-05-01T20:54:40.591Z,39.00
2023-05-01T20:57:07.921Z,43.00
2023-05-01T20:59:36.237Z,43.75
2023-05-01T21:02:06.746Z,41.00
2023-05-01T21:04:34.110Z,40.50
2023-05-01T21:07:01.014Z,41.50
2023-05-01T21:09:28.495Z,39.25
2023-05-01T21:11:55.565Z,39.00
2023-05-01T21:14:22.848Z,39.75
2023-05-01T21:16:49.826Z,38.75
2023-05-01T21:19:17.022Z,41.75
2023-05-01T21:21:44.121Z,38.25
2023-05-01T21:24:19.611Z,37.25
2023-05-01T21:26:46.721Z,41.25
2023-05-01T21:29:14.242Z,36.75
2023-05-01T21:31:41.348Z,34.25
2023-05-01T21:34:09.090Z,38.75
2023-05-01T21:36:42.866Z,36.00
2023-05-01T21:39:10.257Z,32.75
2023-05-01T21:41:37.471Z,36.25
2023-05-01T21:44:05.043Z,37.00
2023-05-01T21:46:32.081Z,36.00
2023-05-01T21:48:59.348Z,34.25
2023-05-01T21:51:28.713Z,39.50
2023-05-01T21:53:55.970Z,36.25
2023-05-01T21:56:23.587Z,35.50
2023-05-01T21:58:51.864Z,32.25
2023-05-01T22:01:19.586Z,36.00
2023-05-01T22:03:47.056Z,36.25
2023-05-01T22:06:14.193Z,36.00
2023-05-01T22:08:42.094Z,28.50
2023-05-01T22:11:09.508Z,39.00
2023-05-01T22:13:36.945Z,31.75
2023-05-01T22:16:04.243Z,31.25
2023-05-01T22:18:31.566Z,29.25
2023-05-01T22:20:59.561Z,37.00
2023-05-01T22:23:27.145Z,32.75
2023-05-01T22:26:00.139Z,37.00
2023-05-01T22:28:27.896Z,34.50
2023-05-01T22:30:55.053Z,37.00
2023-05-01T22:33:22.659Z,36.00
2023-05-01T22:35:49.523Z,35.25
2023-05-01T22:38:17.220Z,34.00
2023-05-01T22:40:44.074Z,37.75
2023-05-01T22:43:11.557Z,46.00
2023-05-01T22:45:39.691Z,50.25
2023-05-01T22:48:07.199Z,48.50
2023-05-01T22:50:34.630Z,45.75
2023-05-01T22:53:02.058Z,50.00
2023-05-01T22:55:29.131Z,56.00
2023-05-01T22:57:56.617Z,56.25
2023-05-01T23:00:23.815Z,53.00
2023-05-01T23:02:51.379Z,52.00
2023-05-01T23:05:18.883Z,52.00
2023-05-01T23:07:46.182Z,51.75
2023-05-01T23:10:13.135Z,53.00
2023-05-01T23:12:43.207Z,54.00
2023-05-01T23:15:18.570Z,57.25
2023-05-01T23:17:46.350Z,55.75
2023-05-01T23:20:24.643Z,55.25
2023-05-01T23:22:51.995Z,50.75
2023-05-01T23:25:25.820Z,50.00
2023-05-01T23:27:55.771Z,49.00
2023-05-01T23:30:22.953Z,49.00
2023-05-01T23:32:50.214Z,70.00
2023-05-01T23:35:21.116Z,56.00
2023-05-01T23:37:49.384Z,48.00
2023-05-01T23:40:16.569Z,44.75
2023-05-01T23:42:44.034Z,46.00
2023-05-01T23:45:11.351Z,42.50
2023-05-01T23:47:39.283Z,47.50
2023-05-01T23:50:06.966Z,43.00
2023-05-01T23:52:34.416Z,45.50
2023-05-01T23:55:01.816Z,41.00
2023-05-01T23:57:29.018Z,44.25
2023-05-01T23:59:56.086Z,44.25
